Gas City, IN

10:58 AM EDT on October 02, 2014 (GMT -0400)
Delaware County-Johnson | Change Station
CLOSE
Current Station
Airport
Location: Muncie,
Elevation: 938 ft
Nearby Weather Stations

Elev 938 ft 40.23 °N, 85.39 °W | Updated 5 minutes ago

Rain
Rain
68 °F
Feels Like 68 °F
N
9
Wind Variable Wind from South

Today
High -- | Low -- °F
--% Chance of Precip.
Yesterday
High -- | Low -- °F
Precip. -- in
7:39 AM 7:22 PM
First Quarter, 59% visible
Pressure 29.94 in
Visibility 10.0 miles
Clouds Scattered Clouds 10000 ft
Mostly Cloudy 12000 ft
Dew Point 56 °F
Humidity 65%
Rainfall 0.00 in
Snow Depth Not available.
UV 2 out of 12
Pollen 3.70 out of 12
Air Quality Not available.
Flu Activity Not available.
METAR KMIE 021453Z 18008KT 10SM SCT100 BKN120 20/13 A2995 RMK AO2 PRESFR SLP137 T02000133 58009

More Conditions Fewer Conditions

Pressure 29.94 in
Visibility 10.0 miles
Clouds Scattered Clouds 10000 ft
Mostly Cloudy 12000 ft
Dew Point 56 °F
Humidity 65%
Rainfall 0.00 in
Snow Depth Not available.
UV 2 out of 12
Pollen 3.70 out of 12
Air Quality Not available.
Flu Activity Not available.
METAR KMIE 021453Z 18008KT 10SM SCT100 BKN120 20/13 A2995 RMK AO2 PRESFR SLP137 T02000133 58009

More Conditions Fewer Conditions

10-Day Weather Forecast

Almanac

Astronomy

Oct. 02, 2014 Rise Set
Actual Time 7:39 AM EDT 7:22 PM EDT
Civil Twilight 7:12 AM EDT 7:50 PM EDT
Nautical Twilight 6:41 AM EDT 8:21 PM EDT
Astronomical Twilight 6:09 AM EDT 8:53 PM EDT
Moon 3:29 PM EDT 12:54 AM EDT
Length of Visible Light 12h 37m
Length of Day
11h 43m
Tomorrow will be 2m 40s shorter.
First Quarter, 59% of the Moon is Illuminated
Today
First Quarter
Oct 8
Full
Oct 15
Last Quarter
Oct 23
New
Oct 30
First Quarter

Today's Extremes

State Highs State Lows

Community

WunderPhotos

Upload Photos

1,758,257 photos uploaded!

WunderBlogs® & News

Nearby

Snow Depth

Station Depth Elevation
No new snow has been reported.

Earthquake Activity

City Distance Mag. Time & Date
No recent earthquake activity has been reported nearby.
Minimum magnitude displayed is 2.5.

Coastal Water Temperatures

Place Temperature
No Stations Reporting

Nearby Weather Stations